Time;durP1;ratioP1;P1;durP2;ratioP2;P2;SDS_P1;SDS_P2;PMS_P1;PMS_P2;Temp;Humidity;BMP_temperature;BMP_pressure;BME280_temperature;BME280_humidity;BME280_pressure;Samples;Min_cycle;Max_cycle;Signal;HPM_P1;HPM_P2
2023/03/15 00:01:33;;;;;;;5.47;1.70;;;;;;;0.95;97.83;100203.22;5018760;28;20281;-72
2023/03/15 00:03:59;;;;;;;6.13;2.20;;;;;;;0.80;98.00;100202.44;5022679;28;20607;-71
2023/03/15 00:06:26;;;;;;;9.53;1.77;;;;;;;1.01;96.63;100195.69;5020671;28;20899;-71
2023/03/15 00:08:52;;;;;;;7.83;2.00;;;;;;;0.95;95.95;100203.22;5019474;28;20199;-71
2023/03/15 00:11:19;;;;;;;4.90;1.70;;;;;;;0.93;95.56;100208.34;5016910;28;20249;-71
2023/03/15 00:13:45;;;;;;;9.80;2.07;;;;;;;0.92;95.18;100206.56;5020705;28;20203;-71
2023/03/15 00:16:16;;;;;;;4.17;1.57;;;;;;;0.99;95.62;100212.06;5018703;28;20202;-71
2023/03/15 00:18:44;;;;;;;2.87;1.43;;;;;;;0.82;96.28;100212.16;5018857;28;20206;-71
2023/03/15 00:21:10;;;;;;;7.87;1.57;;;;;;;0.94;96.06;100211.84;5018446;28;20235;-71
2023/03/15 00:23:36;;;;;;;6.10;1.70;;;;;;;1.03;95.43;100207.06;5020671;28;20218;-71
2023/03/15 00:26:03;;;;;;;6.83;1.80;;;;;;;0.86;95.03;100202.78;5020632;28;20726;-71
2023/03/15 00:28:29;;;;;;;4.90;1.60;;;;;;;0.64;96.35;100206.03;5017233;28;20198;-71
2023/03/15 00:31:14;;;;;;;4.57;1.63;;;;;;;0.38;97.34;100214.22;5027722;28;20219;-71
2023/03/15 00:33:41;;;;;;;6.17;1.60;;;;;;;0.19;98.31;100225.44;5026825;28;20202;-71
2023/03/15 00:36:08;;;;;;;6.90;1.60;;;;;;;0.08;99.78;100206.66;5018043;28;20215;-71
2023/03/15 00:38:37;;;;;;;4.70;1.73;;;;;;;0.00;100.00;100215.78;5029403;28;20225;-72
2023/03/15 00:41:12;;;;;;;5.83;1.93;;;;;;;-0.06;100.00;100225.84;5028268;28;20865;-71
2023/03/15 00:43:38;;;;;;;8.50;1.90;;;;;;;-0.02;100.00;100235.59;5020746;28;20198;-71
2023/03/15 00:46:05;;;;;;;9.40;1.90;;;;;;;0.15;99.93;100234.78;5022252;28;20205;-71
2023/03/15 00:48:34;;;;;;;3.37;1.60;;;;;;;0.03;99.75;100246.28;5027301;28;20218;-71
2023/03/15 00:51:06;;;;;;;8.67;1.93;;;;;;;0.13;99.50;100254.66;5020003;28;20280;-71
2023/03/15 00:53:33;;;;;;;4.60;1.70;;;;;;;-0.07;99.71;100265.72;5024955;28;20225;-71
2023/03/15 00:56:11;;;;;;;3.83;2.07;;;;;;;-0.26;100.00;100262.94;5033783;28;20633;-71
2023/03/15 00:58:38;;;;;;;5.63;1.70;;;;;;;-0.34;100.00;100266.03;5027746;28;20233;-71
2023/03/15 01:01:11;;;;;;;5.10;1.50;;;;;;;-0.30;100.00;100259.28;5020748;28;20226;-72
2023/03/15 01:03:39;;;;;;;7.80;1.97;;;;;;;-0.20;100.00;100264.16;5023499;28;20253;-71
2023/03/15 01:06:09;;;;;;;5.20;1.40;;;;;;;-0.34;100.00;100259.94;5022343;28;20236;-71
2023/03/15 01:08:35;;;;;;;9.30;1.70;;;;;;;-0.46;100.00;100265.34;5021944;28;20199;-71
2023/03/15 01:11:07;;;;;;;4.47;1.73;;;;;;;-0.54;100.00;100252.72;5026373;28;20279;-71
2023/03/15 01:13:35;;;;;;;1.93;1.40;;;;;;;-0.64;100.00;100262.63;5023582;28;20721;-71
2023/03/15 01:16:01;;;;;;;8.37;2.40;;;;;;;-0.69;100.00;100264.09;5023903;28;20198;-72
2023/03/15 01:18:28;;;;;;;4.80;1.73;;;;;;;-0.54;100.00;100274.44;5018720;28;20202;-71
2023/03/15 01:20:56;;;;;;;5.47;1.80;;;;;;;-0.58;100.00;100268.97;5018859;28;20225;-72
2023/03/15 01:23:22;;;;;;;3.93;1.70;;;;;;;-0.66;100.00;100265.97;5020132;28;20708;-71
2023/03/15 01:25:48;;;;;;;5.17;2.00;;;;;;;-0.56;100.00;100276.06;5025851;28;20233;-70
2023/03/15 01:28:15;;;;;;;8.23;2.20;;;;;;;-0.52;100.00;100277.13;5025346;28;20248;-72
2023/03/15 01:30:49;;;;;;;5.90;1.90;;;;;;;-0.50;100.00;100280.69;5025713;28;20248;-72
2023/03/15 01:33:18;;;;;;;7.70;1.80;;;;;;;-0.54;100.00;100281.34;5022913;28;20245;-72
2023/03/15 01:35:44;;;;;;;9.53;1.90;;;;;;;-0.39;100.00;100285.69;5024569;28;20686;-72
2023/03/15 01:38:13;;;;;;;9.47;1.40;;;;;;;-0.07;100.00;100286.53;5021753;28;20285;-71
2023/03/15 01:40:41;;;;;;;3.20;1.53;;;;;;;0.09;100.00;100294.38;5020092;28;20214;-72
2023/03/15 01:43:08;;;;;;;8.47;1.80;;;;;;;0.09;100.00;100298.69;5019548;28;20205;-72
2023/03/15 01:46:11;;;;;;;3.23;1.80;;;;;;;0.11;100.00;100289.22;5026170;28;20194;-71
2023/03/15 01:48:43;;;;;;;1.97;1.30;;;;;;;0.09;99.72;100296.06;5022474;28;20198;-71
2023/03/15 01:51:20;;;;;;;7.27;1.90;;;;;;;0.03;100.00;100306.16;5023485;28;20607;-72
2023/03/15 01:53:53;;;;;;;6.10;1.77;;;;;;;0.03;100.00;100317.47;5017595;28;20213;-71
2023/03/15 01:56:22;;;;;;;4.43;1.67;;;;;;;-0.04;100.00;100311.00;5024529;28;20275;-71
2023/03/15 01:58:51;;;;;;;3.90;1.70;;;;;;;-0.15;100.00;100311.25;5028207;28;20209;-71
2023/03/15 02:01:19;;;;;;;4.77;1.90;;;;;;;-0.14;100.00;100298.31;5025816;28;20545;-71
2023/03/15 02:03:50;;;;;;;3.80;1.73;;;;;;;-0.24;100.00;100315.97;5025369;28;20209;-71
2023/03/15 02:06:18;;;;;;;5.67;1.90;;;;;;;-0.27;100.00;100311.47;5020183;28;20201;-72
2023/03/15 02:08:50;;;;;;;4.90;1.47;;;;;;;-0.23;100.00;100309.94;5019492;28;20715;-71
2023/03/15 02:11:20;;;;;;;8.17;1.67;;;;;;;-0.48;100.00;100312.88;5018444;28;20253;-71
2023/03/15 02:13:48;;;;;;;8.30;1.80;;;;;;;-0.60;100.00;100312.22;5026445;28;20226;-72
2023/03/15 02:16:15;;;;;;;5.87;1.80;;;;;;;-0.69;100.00;100316.09;5022893;28;20205;-71
2023/03/15 02:18:42;;;;;;;5.43;1.70;;;;;;;-0.72;100.00;100315.03;5022979;28;20676;-71
2023/03/15 02:21:32;;;;;;;7.30;2.40;;;;;;;-0.81;100.00;100312.78;5025225;28;20394;-71
2023/03/15 02:24:20;;;;;;;7.03;2.20;;;;;;;-0.79;100.00;100312.88;5024078;28;20228;-71
2023/03/15 02:26:54;;;;;;;5.33;1.80;;;;;;;-0.87;100.00;100308.94;5032262;28;20207;-71
2023/03/15 02:29:23;;;;;;;6.90;2.23;;;;;;;-0.86;100.00;100314.22;5020034;28;20696;-71
2023/03/15 02:31:50;;;;;;;10.47;1.90;;;;;;;-0.83;100.00;100317.00;5019149;28;20711;-71
2023/03/15 02:34:17;;;;;;;6.83;1.80;;;;;;;-0.71;100.00;100319.41;5021648;28;20206;-71
2023/03/15 02:36:43;;;;;;;5.47;2.07;;;;;;;-0.75;100.00;100315.75;5021566;28;20197;-72
2023/03/15 02:39:15;;;;;;;7.07;1.90;;;;;;;-0.68;100.00;100312.69;5023122;28;20259;-72
2023/03/15 02:41:50;;;;;;;5.10;2.10;;;;;;;-0.58;100.00;100310.59;5021043;28;20217;-72
2023/03/15 02:44:31;;;;;;;4.43;1.70;;;;;;;-0.63;100.00;100332.03;5014644;28;20243;-71
2023/03/15 02:47:03;;;;;;;5.97;1.70;;;;;;;-0.64;100.00;100342.34;5019042;28;20235;-72
2023/03/15 02:49:34;;;;;;;6.70;2.20;;;;;;;-0.52;100.00;100342.13;5019505;28;20281;-72
2023/03/15 02:52:00;;;;;;;5.23;2.00;;;;;;;-0.53;100.00;100335.16;5020599;28;20238;-72
2023/03/15 02:54:26;;;;;;;4.63;1.87;;;;;;;-0.19;100.00;100341.41;5018630;28;20243;-72
2023/03/15 02:56:53;;;;;;;6.23;2.10;;;;;;;-0.20;100.00;100339.63;5019589;28;20386;-72
2023/03/15 02:59:19;;;;;;;8.03;2.30;;;;;;;-0.18;100.00;100350.13;5020936;28;20200;-71
2023/03/15 03:01:45;;;;;;;6.17;2.30;;;;;;;-0.14;100.00;100358.19;5021289;28;20364;-72
2023/03/15 03:04:12;;;;;;;8.03;2.47;;;;;;;-0.21;100.00;100356.06;5020391;28;20197;-71
2023/03/15 03:06:38;;;;;;;7.07;2.13;;;;;;;-0.12;100.00;100358.25;5028975;28;20201;-72
2023/03/15 03:09:05;;;;;;;8.63;2.20;;;;;;;-0.10;100.00;100347.13;5018937;28;20299;-72
2023/03/15 03:11:31;;;;;;;7.13;2.40;;;;;;;-0.12;100.00;100353.94;5019637;28;20225;-72
2023/03/15 03:13:57;;;;;;;4.67;2.27;;;;;;;-0.28;100.00;100348.72;5021360;28;20196;-72
2023/03/15 03:16:24;;;;;;;5.90;2.50;;;;;;;-0.26;100.00;100359.22;5020939;28;20262;-72
2023/03/15 03:18:50;;;;;;;4.03;2.10;;;;;;;-0.15;100.00;100364.19;5022052;28;20239;-71
2023/03/15 03:21:17;;;;;;;7.10;2.47;;;;;;;-0.01;100.00;100363.22;5020732;28;20221;-71
2023/03/15 03:23:45;;;;;;;5.17;2.20;;;;;;;-0.20;100.00;100369.97;5021770;28;20688;-72
2023/03/15 03:26:16;;;;;;;10.63;2.33;;;;;;;-0.30;100.00;100365.97;5019653;28;20200;-72
2023/03/15 03:28:45;;;;;;;13.93;2.33;;;;;;;-0.26;100.00;100372.22;5021594;28;20210;-72
2023/03/15 03:31:23;;;;;;;5.87;2.20;;;;;;;-0.34;100.00;100380.50;5019507;28;20248;-72
2023/03/15 03:33:50;;;;;;;3.87;2.00;;;;;;;-0.39;100.00;100375.84;5022223;28;20340;-71
2023/03/15 03:36:17;;;;;;;8.50;2.30;;;;;;;-0.44;100.00;100377.28;5019582;28;20205;-72
2023/03/15 03:38:45;;;;;;;7.83;2.10;;;;;;;-0.37;100.00;100387.25;5020045;28;20231;-72
2023/03/15 03:41:13;;;;;;;6.63;2.37;;;;;;;-0.41;100.00;100377.44;5019695;28;20314;-72
2023/03/15 03:43:39;;;;;;;4.80;2.20;;;;;;;-0.37;100.00;100371.63;5022646;28;20192;-71
2023/03/15 03:46:06;;;;;;;4.80;2.00;;;;;;;-0.35;100.00;100376.09;5019022;28;20199;-73
2023/03/15 03:48:33;;;;;;;5.27;2.20;;;;;;;-0.38;100.00;100375.03;5020435;28;20197;-71
2023/03/15 03:50:59;;;;;;;12.50;2.40;;;;;;;-0.41;100.00;100373.13;5020755;28;20274;-73
2023/03/15 03:53:25;;;;;;;9.83;2.07;;;;;;;-0.45;100.00;100376.38;5017825;28;20222;-72
2023/03/15 03:55:53;;;;;;;7.53;2.53;;;;;;;-0.40;100.00;100372.34;5020659;28;20196;-71
2023/03/15 03:58:20;;;;;;;7.20;2.13;;;;;;;-0.46;100.00;100371.97;5017664;28;20591;-72
2023/03/15 04:00:46;;;;;;;5.87;2.23;;;;;;;-0.49;100.00;100383.91;5026052;28;20225;-72
2023/03/15 04:03:12;;;;;;;9.37;2.50;;;;;;;-0.37;100.00;100395.94;5029022;28;20192;-71
2023/03/15 04:05:40;;;;;;;5.83;2.23;;;;;;;-0.34;100.00;100401.31;5026996;28;20207;-71
2023/03/15 04:08:07;;;;;;;4.97;2.53;;;;;;;-0.39;100.00;100399.28;5029980;28;20580;-71
2023/03/15 04:10:33;;;;;;;4.07;2.40;;;;;;;-0.43;100.00;100411.19;5027733;28;20243;-72
2023/03/15 04:13:00;;;;;;;5.53;2.30;;;;;;;-0.45;100.00;100412.78;5026417;28;20279;-71
2023/03/15 04:15:26;;;;;;;6.50;2.30;;;;;;;-0.41;100.00;100419.06;5029066;28;20197;-71
2023/03/15 04:17:57;;;;;;;7.07;2.83;;;;;;;-0.46;100.00;100415.31;5030351;28;20210;-72
2023/03/15 04:20:26;;;;;;;5.63;2.47;;;;;;;-0.52;100.00;100418.47;5024866;28;20279;-72
2023/03/15 04:22:53;;;;;;;5.93;2.60;;;;;;;-0.55;100.00;100413.09;5030320;28;20210;-72
2023/03/15 04:25:20;;;;;;;7.40;2.53;;;;;;;-0.61;100.00;100409.25;5029399;28;20197;-71
2023/03/15 04:27:57;;;;;;;9.10;2.53;;;;;;;-0.60;100.00;100413.63;5027423;28;20234;-71
2023/03/15 04:30:28;;;;;;;4.87;2.30;;;;;;;-0.56;100.00;100426.00;5019658;28;20688;-72
2023/03/15 04:32:59;;;;;;;7.53;2.27;;;;;;;-0.47;100.00;100422.22;5019185;28;20243;-72
2023/03/15 04:35:25;;;;;;;8.73;2.40;;;;;;;-0.36;100.00;100412.44;5020827;28;22052;-72
2023/03/15 04:37:52;;;;;;;7.63;2.70;;;;;;;-0.35;100.00;100409.03;5020195;28;20661;-72
2023/03/15 04:40:22;;;;;;;9.30;2.90;;;;;;;-0.16;100.00;100406.66;5015206;28;20227;-72
2023/03/15 04:42:55;;;;;;;9.73;2.27;;;;;;;-0.08;100.00;100413.16;5021718;28;20222;-71
2023/03/15 04:45:22;;;;;;;7.77;2.40;;;;;;;0.04;100.00;100399.06;5015649;28;20233;-71
2023/03/15 04:47:50;;;;;;;7.10;2.80;;;;;;;0.12;100.00;100405.59;5019535;28;20202;-71
2023/03/15 04:50:17;;;;;;;6.83;2.50;;;;;;;0.23;100.00;100410.56;5016135;28;20223;-72
2023/03/15 04:52:44;;;;;;;8.67;3.03;;;;;;;0.25;100.00;100410.63;5022858;28;20292;-71
2023/03/15 04:55:10;;;;;;;7.67;2.90;;;;;;;0.29;100.00;100410.88;5017790;28;20222;-71
2023/03/15 04:57:37;;;;;;;5.63;2.80;;;;;;;0.46;99.35;100404.00;5018598;28;20233;-71
2023/03/15 05:00:08;;;;;;;11.27;2.80;;;;;;;0.45;98.50;100407.41;5018921;28;20221;-72
2023/03/15 05:02:38;;;;;;;8.70;2.17;;;;;;;0.56;98.13;100407.97;5019589;28;20275;-73
2023/03/15 05:05:09;;;;;;;6.00;2.40;;;;;;;0.61;97.79;100419.53;5028637;28;20384;-71
2023/03/15 05:07:36;;;;;;;4.97;2.27;;;;;;;0.76;96.02;100401.19;5023345;28;20728;-71
2023/03/15 05:10:05;;;;;;;7.63;2.30;;;;;;;0.77;96.37;100403.00;5025164;28;20581;-71
2023/03/15 05:12:32;;;;;;;6.70;2.30;;;;;;;0.76;96.45;100411.63;5026242;28;20226;-71
2023/03/15 05:14:59;;;;;;;4.80;2.10;;;;;;;0.82;96.10;100422.41;5020371;28;20666;-71
2023/03/15 05:17:25;;;;;;;4.13;2.13;;;;;;;0.99;95.79;100420.66;5026928;28;20587;-71
2023/03/15 05:19:52;;;;;;;4.43;2.20;;;;;;;1.06;94.75;100425.38;5023329;28;20238;-71
2023/03/15 05:22:18;;;;;;;10.57;2.93;;;;;;;1.11;94.35;100430.00;5018521;28;20200;-71
2023/03/15 05:24:45;;;;;;;3.83;1.97;;;;;;;1.10;94.84;100433.41;5018507;28;20210;-73
2023/03/15 05:27:12;;;;;;;6.20;2.27;;;;;;;1.07;95.49;100427.16;5020737;28;20755;-71
2023/03/15 05:29:38;;;;;;;6.33;2.50;;;;;;;1.26;93.79;100429.91;5028094;28;20203;-72
2023/03/15 05:32:05;;;;;;;5.83;2.47;;;;;;;1.24;94.42;100429.84;5026626;28;20226;-72
2023/03/15 05:34:31;;;;;;;6.23;2.17;;;;;;;1.15;95.23;100436.25;5025679;28;20645;-71
2023/03/15 05:36:58;;;;;;;4.87;2.47;;;;;;;1.22;95.61;100441.00;5020098;28;20242;-71
2023/03/15 05:39:25;;;;;;;6.60;2.70;;;;;;;1.24;95.27;100440.25;5026156;28;20203;-72
2023/03/15 05:41:51;;;;;;;7.17;2.37;;;;;;;1.37;93.74;100441.78;5025180;28;20214;-71
2023/03/15 05:44:17;;;;;;;4.63;2.63;;;;;;;1.27;94.45;100446.44;5025941;28;20548;-71
2023/03/15 05:46:44;;;;;;;6.30;2.40;;;;;;;1.28;94.49;100446.53;5025865;28;20235;-71
2023/03/15 05:49:10;;;;;;;5.47;2.40;;;;;;;1.28;95.15;100445.63;5025710;28;20613;-71
2023/03/15 05:51:36;;;;;;;6.83;2.13;;;;;;;1.23;95.65;100448.91;5022350;28;20227;-71
2023/03/15 05:54:03;;;;;;;7.17;2.57;;;;;;;1.25;96.13;100457.69;5026052;28;20310;-71
2023/03/15 05:56:30;;;;;;;8.67;2.67;;;;;;;1.29;96.57;100460.47;5026367;28;20191;-72
2023/03/15 05:58:56;;;;;;;5.50;2.40;;;;;;;1.46;95.44;100470.94;5031477;28;20193;-71
2023/03/15 06:01:22;;;;;;;6.67;2.90;;;;;;;1.49;95.00;100467.56;5026137;28;20588;-71
2023/03/15 06:03:49;;;;;;;9.40;2.53;;;;;;;1.47;95.35;100477.94;5031676;28;20616;-71
2023/03/15 06:06:15;;;;;;;6.43;2.73;;;;;;;1.44;95.21;100477.78;5025200;28;20800;-72
2023/03/15 06:08:42;;;;;;;7.93;2.60;;;;;;;1.50;95.25;100483.31;5024124;28;20199;-71
2023/03/15 06:11:08;;;;;;;6.97;2.80;;;;;;;1.51;94.99;100489.44;5029417;28;20230;-71
2023/03/15 06:13:34;;;;;;;7.83;2.50;;;;;;;1.51;95.37;100495.53;5028862;28;20223;-70
2023/03/15 06:16:01;;;;;;;6.40;2.60;;;;;;;1.53;95.31;100496.50;5025491;28;20301;-71
2023/03/15 06:18:27;;;;;;;6.50;2.47;;;;;;;1.45;96.08;100502.16;5024167;28;20227;-70
2023/03/15 06:20:54;;;;;;;5.20;2.40;;;;;;;1.39;96.69;100501.84;5026381;28;20222;-70
2023/03/15 06:23:20;;;;;;;8.80;2.93;;;;;;;1.22;97.35;100506.22;5017003;28;20296;-72
2023/03/15 06:25:46;;;;;;;6.83;2.33;;;;;;;1.18;98.68;100501.63;5020851;28;20195;-69
2023/03/15 06:28:13;;;;;;;6.90;2.63;;;;;;;1.21;99.43;100499.22;5024422;28;20245;-69
2023/03/15 06:30:40;;;;;;;5.90;2.33;;;;;;;1.20;99.67;100506.13;5025681;28;20258;-69
2023/03/15 06:33:06;;;;;;;4.30;2.60;;;;;;;1.21;99.81;100507.03;5024114;28;20223;-69
2023/03/15 06:35:33;;;;;;;4.90;2.30;;;;;;;1.27;99.92;100504.75;5028023;28;20209;-69
2023/03/15 06:38:00;;;;;;;8.30;3.10;;;;;;;1.31;99.36;100503.19;5025919;28;20195;-69
2023/03/15 06:40:26;;;;;;;8.33;2.93;;;;;;;1.28;99.79;100503.91;5020714;28;20227;-69
2023/03/15 06:42:53;;;;;;;5.50;2.60;;;;;;;1.36;99.17;100504.31;5026020;28;20258;-70
2023/03/15 06:45:19;;;;;;;5.80;2.70;;;;;;;1.35;99.62;100492.09;5024101;28;21475;-69
2023/03/15 06:47:46;;;;;;;6.20;3.00;;;;;;;1.38;99.15;100489.63;5022762;28;20729;-71
2023/03/15 06:50:12;;;;;;;6.53;2.67;;;;;;;1.49;99.39;100501.50;5027459;28;20215;-71
2023/03/15 06:52:38;;;;;;;8.70;2.50;;;;;;;1.68;98.52;100498.13;4991409;28;1077232;-71
2023/03/15 06:55:05;;;;;;;5.60;2.83;;;;;;;1.77;97.21;100499.47;5030299;28;20202;-68
2023/03/15 06:57:32;;;;;;;7.03;2.67;;;;;;;1.81;97.28;100500.53;5008107;28;20651;-69
2023/03/15 06:59:58;;;;;;;8.17;2.83;;;;;;;1.83;96.96;100507.59;5025890;28;20191;-69
2023/03/15 07:02:24;;;;;;;4.83;2.67;;;;;;;1.81;97.48;100517.09;5029745;28;20203;-68
2023/03/15 07:04:51;;;;;;;4.70;2.70;;;;;;;1.87;97.42;100520.00;5027184;28;20382;-69
2023/03/15 07:07:17;;;;;;;7.67;3.07;;;;;;;2.06;97.28;100515.69;5026533;28;20203;-70
2023/03/15 07:09:44;;;;;;;7.00;2.90;;;;;;;2.27;95.78;100524.56;5031624;28;20191;-70
2023/03/15 07:12:10;;;;;;;8.70;3.03;;;;;;;2.38;92.99;100518.13;5023912;28;20204;-70
2023/03/15 07:14:37;;;;;;;10.40;2.73;;;;;;;2.61;93.08;100520.97;5024136;28;20231;-70
2023/03/15 07:17:05;;;;;;;10.13;3.33;;;;;;;2.65;92.22;100530.72;5023184;28;20214;-70
2023/03/15 07:19:32;;;;;;;6.30;3.00;;;;;;;2.63;89.82;100530.66;5026591;28;20191;-70
2023/03/15 07:21:59;;;;;;;7.03;3.20;;;;;;;2.72;90.87;100522.34;5024397;28;20754;-70
2023/03/15 07:24:27;;;;;;;5.17;3.10;;;;;;;3.18;90.79;100533.19;5025345;28;20265;-70
2023/03/15 07:26:55;;;;;;;5.23;2.73;;;;;;;3.46;87.25;100530.97;5019509;28;20222;-70
2023/03/15 07:29:22;;;;;;;7.97;3.03;;;;;;;3.49;87.03;100524.97;5015027;28;20237;-70
2023/03/15 07:31:49;;;;;;;6.97;3.37;;;;;;;3.39;87.65;100536.78;5018603;28;20276;-70
2023/03/15 07:34:16;;;;;;;7.27;3.23;;;;;;;3.41;87.50;100537.75;5019053;28;20269;-71
2023/03/15 07:36:43;;;;;;;9.13;3.07;;;;;;;3.75;86.43;100532.25;5021939;28;20195;-73
2023/03/15 07:39:10;;;;;;;7.33;2.80;;;;;;;3.78;86.10;100539.34;5022734;28;20775;-73
2023/03/15 07:41:36;;;;;;;6.97;2.90;;;;;;;3.89;85.40;100547.66;5016300;28;20252;-73
2023/03/15 07:44:03;;;;;;;7.73;2.80;;;;;;;3.87;86.09;100550.19;5017126;28;20297;-74
2023/03/15 07:46:30;;;;;;;6.87;2.93;;;;;;;3.97;86.07;100559.34;5019743;28;20209;-74
2023/03/15 07:48:56;;;;;;;7.20;2.87;;;;;;;3.89;86.32;100551.16;5021937;28;20195;-75
2023/03/15 07:51:22;;;;;;;6.67;2.80;;;;;;;3.95;85.58;100561.91;5017107;28;20316;-73
2023/03/15 07:53:49;;;;;;;7.77;2.80;;;;;;;3.91;84.37;100556.47;5020882;28;20251;-73
2023/03/15 07:56:15;;;;;;;8.13;2.83;;;;;;;3.84;85.83;100567.50;5016847;28;20202;-70
2023/03/15 07:58:42;;;;;;;7.30;2.77;;;;;;;3.79;85.36;100572.56;5021149;28;20196;-70
2023/03/15 08:01:08;;;;;;;4.47;2.60;;;;;;;3.84;85.38;100568.41;5025620;28;20220;-70
2023/03/15 08:03:35;;;;;;;6.87;2.90;;;;;;;3.91;85.86;100577.41;5028523;28;20253;-72
2023/03/15 08:06:01;;;;;;;5.40;2.97;;;;;;;3.90;85.82;100581.75;5028731;28;20199;-71
2023/03/15 08:08:27;;;;;;;5.80;2.50;;;;;;;3.83;86.68;100581.44;5026314;28;20241;-72
2023/03/15 08:10:54;;;;;;;6.53;3.03;;;;;;;3.85;86.61;100587.63;5027375;28;20717;-74
2023/03/15 08:13:21;;;;;;;9.13;2.90;;;;;;;4.10;87.36;100590.50;5026698;28;20291;-72
2023/03/15 08:15:47;;;;;;;6.70;2.43;;;;;;;3.99;86.91;100586.50;5028651;28;20251;-72
2023/03/15 08:18:14;;;;;;;9.00;2.63;;;;;;;4.21;86.71;100601.41;5024326;28;20268;-72
2023/03/15 08:20:40;;;;;;;7.30;2.50;;;;;;;4.06;86.21;100591.19;5027321;28;20597;-72
2023/03/15 08:23:08;;;;;;;6.10;2.90;;;;;;;3.99;86.24;100592.63;5020635;28;20205;-70
2023/03/15 08:25:39;;;;;;;4.80;2.43;;;;;;;3.95;87.88;100603.81;5023594;28;20585;-70
2023/03/15 08:28:05;;;;;;;4.87;2.27;;;;;;;3.96;87.14;100594.22;5020217;28;20254;-73
2023/03/15 08:30:32;;;;;;;7.97;2.80;;;;;;;4.06;89.55;100601.69;5025279;28;20638;-71
2023/03/15 08:32:58;;;;;;;10.03;2.90;;;;;;;4.03;88.25;100602.44;5025692;28;20195;-72
2023/03/15 08:35:24;;;;;;;6.80;3.00;;;;;;;4.00;88.19;100604.94;5023823;28;20256;-73
2023/03/15 08:37:51;;;;;;;8.40;3.00;;;;;;;3.94;87.39;100607.25;5026592;28;20193;-71
2023/03/15 08:40:25;;;;;;;4.33;2.60;;;;;;;4.10;88.07;100608.84;5022583;28;20223;-71
2023/03/15 08:42:52;;;;;;;7.60;2.80;;;;;;;4.39;87.51;100618.78;5027327;28;20225;-72
2023/03/15 08:45:19;;;;;;;5.13;2.70;;;;;;;4.36;85.57;100631.78;5027056;28;20608;-71
2023/03/15 08:47:46;;;;;;;11.00;3.10;;;;;;;4.39;86.15;100628.38;5025749;28;20240;-73
2023/03/15 08:50:14;;;;;;;6.50;2.83;;;;;;;4.38;85.38;100634.47;5023927;28;20218;-73
2023/03/15 08:52:41;;;;;;;5.40;2.93;;;;;;;4.46;86.72;100637.44;5024589;28;20296;-72
2023/03/15 08:55:09;;;;;;;6.80;2.90;;;;;;;4.58;85.77;100644.06;5026879;28;20227;-72
2023/03/15 08:57:36;;;;;;;6.17;3.17;;;;;;;4.79;85.85;100644.03;5025094;28;20203;-70
2023/03/15 09:00:07;;;;;;;4.40;2.77;;;;;;;4.73;85.20;100649.94;5017538;28;20259;-71
2023/03/15 09:02:34;;;;;;;4.47;2.53;;;;;;;4.69;85.67;100655.91;5025098;28;20196;-71
2023/03/15 09:05:01;;;;;;;4.47;3.00;;;;;;;4.57;85.79;100650.16;5020929;28;20202;-71
2023/03/15 09:07:27;;;;;;;10.17;3.93;;;;;;;4.47;86.08;100650.59;5026911;28;20208;-73
2023/03/15 09:09:54;;;;;;;6.40;3.37;;;;;;;4.69;84.92;100655.91;5024855;28;20217;-72
2023/03/15 09:12:20;;;;;;;6.87;3.20;;;;;;;4.88;84.53;100654.94;5026298;28;20461;-71
2023/03/15 09:14:47;;;;;;;5.63;2.67;;;;;;;5.28;83.56;100654.78;5027905;28;20217;-73
2023/03/15 09:17:13;;;;;;;4.93;3.03;;;;;;;5.59;83.53;100645.41;5027149;28;20199;-73
2023/03/15 09:19:40;;;;;;;5.50;3.07;;;;;;;5.95;81.72;100659.03;5028289;28;20265;-73
2023/03/15 09:22:07;;;;;;;9.53;3.50;;;;;;;6.19;82.42;100657.28;5025554;28;20219;-72
2023/03/15 09:24:51;;;;;;;6.67;3.40;;;;;;;6.10;78.64;100654.34;5029606;28;20199;-72
2023/03/15 09:27:17;;;;;;;6.43;2.90;;;;;;;5.70;80.59;100664.22;5025825;28;20206;-73
2023/03/15 09:29:44;;;;;;;6.13;2.97;;;;;;;5.94;80.39;100668.66;5026480;28;20208;-71
2023/03/15 09:32:10;;;;;;;5.10;2.70;;;;;;;5.95;79.71;100674.81;5025471;28;20261;-72
2023/03/15 09:34:37;;;;;;;8.17;3.33;;;;;;;6.28;80.12;100681.28;5029852;28;20240;-73
2023/03/15 09:37:08;;;;;;;6.20;3.50;;;;;;;6.60;79.70;100681.50;5028316;28;20226;-73
2023/03/15 09:39:34;;;;;;;6.13;3.07;;;;;;;7.08;76.92;100686.59;5025616;28;20197;-72
2023/03/15 09:42:03;;;;;;;8.47;3.53;;;;;;;7.65;75.12;100686.63;5026222;28;20229;-72
2023/03/15 09:44:43;;;;;;;7.30;3.10;;;;;;;7.59;74.55;100682.03;5029069;28;20189;-71
2023/03/15 09:47:32;;;;;;;5.50;3.00;;;;;;;7.66;74.75;100693.69;5028584;28;20231;-71
2023/03/15 09:50:01;;;;;;;4.83;3.03;;;;;;;7.71;74.14;100695.59;5024728;28;20448;-74
2023/03/15 09:52:55;;;;;;;4.33;2.73;;;;;;;7.73;71.16;100695.66;5027390;28;20255;-74
2023/03/15 09:55:24;;;;;;;7.47;3.00;;;;;;;7.85;72.39;100696.00;5039549;28;20218;-71
2023/03/15 09:58:08;;;;;;;6.00;2.80;;;;;;;7.71;70.75;100694.72;5024593;28;20666;-71
2023/03/15 10:00:48;;;;;;;5.23;2.87;;;;;;;7.80;72.43;100697.59;5029036;28;20222;-70
2023/03/15 10:03:41;;;;;;;5.93;2.60;;;;;;;7.82;72.88;100702.06;5026908;28;20205;-71
2023/03/15 10:06:16;;;;;;;2.80;2.10;;;;;;;7.69;72.47;100693.78;5025882;28;20206;-70
2023/03/15 10:08:45;;;;;;;4.50;2.00;;;;;;;7.31;73.67;100696.13;5021553;28;20198;-71
2023/03/15 10:11:17;;;;;;;3.13;1.80;;;;;;;6.73;76.70;100693.31;5015741;28;20299;-70
2023/03/15 10:14:13;;;;;;;3.50;1.63;;;;;;;6.55;76.84;100697.13;5016949;28;20270;-70
2023/03/15 10:16:43;;;;;;;2.60;1.73;;;;;;;6.73;75.48;100701.22;5018543;28;20265;-70
2023/03/15 10:19:45;;;;;;;2.87;1.80;;;;;;;6.67;75.92;100701.03;5015587;28;20248;-71
2023/03/15 10:22:12;;;;;;;2.13;1.80;;;;;;;7.05;73.03;100708.44;4996556;28;20288;-70
2023/03/15 10:25:00;;;;;;;3.70;2.00;;;;;;;7.40;72.87;100699.03;5021440;28;20259;-71
2023/03/15 10:27:44;;;;;;;3.30;1.67;;;;;;;8.16;72.06;100693.38;5015259;28;20272;-72
2023/03/15 10:30:20;;;;;;;2.63;1.97;;;;;;;8.65;66.11;100692.09;5016276;28;20277;-72
2023/03/15 10:32:53;;;;;;;3.67;2.10;;;;;;;8.76;67.27;100693.25;5014565;28;20741;-72
2023/03/15 10:35:20;;;;;;;3.53;2.47;;;;;;;8.98;67.04;100693.81;5016136;28;20224;-72
2023/03/15 10:37:46;;;;;;;2.87;2.00;;;;;;;9.42;66.36;100692.22;5017138;28;20309;-72
2023/03/15 10:40:17;;;;;;;4.10;2.00;;;;;;;9.55;63.15;100691.63;5019389;28;20212;-73
2023/03/15 10:42:45;;;;;;;2.33;1.97;;;;;;;8.78;64.43;100696.81;5028645;28;20257;-76
2023/03/15 10:45:18;;;;;;;2.43;1.87;;;;;;;8.50;64.27;100694.34;5028118;28;20667;-75
2023/03/15 10:47:46;;;;;;;2.13;1.93;;;;;;;8.01;64.10;100686.81;5027230;28;20725;-73
2023/03/15 10:50:28;;;;;;;3.53;2.10;;;;;;;7.20;65.70;100687.91;5026645;28;20226;-72
2023/03/15 10:52:56;;;;;;;2.47;1.90;;;;;;;6.96;67.81;100692.38;5025539;28;20572;-75
2023/03/15 10:55:34;;;;;;;2.30;2.07;;;;;;;6.67;69.04;100691.38;5024025;28;20221;-74
2023/03/15 10:58:19;;;;;;;3.47;2.17;;;;;;;6.31;69.41;100701.53;5026237;28;20228;-72
2023/03/15 11:01:08;;;;;;;2.33;2.10;;;;;;;5.97;69.58;100704.69;5023797;28;20211;-71
2023/03/15 11:03:36;;;;;;;3.87;2.50;;;;;;;5.83;69.52;100716.38;5027284;28;20196;-74
2023/03/15 11:06:19;;;;;;;3.07;2.57;;;;;;;5.81;71.04;100710.19;5027874;28;20576;-73
2023/03/15 11:08:46;;;;;;;3.10;2.30;;;;;;;5.80;71.55;100716.28;5024656;28;20609;-72
2023/03/15 11:11:12;;;;;;;2.33;2.00;;;;;;;5.92;69.83;100707.13;5026377;28;20275;-72
2023/03/15 11:13:40;;;;;;;2.83;2.20;;;;;;;5.92;68.10;100711.50;5030412;28;20211;-72
2023/03/15 11:16:19;;;;;;;3.30;2.50;;;;;;;6.11;69.20;100718.34;5025540;28;20231;-72
2023/03/15 11:19:00;;;;;;;2.60;2.27;;;;;;;6.36;69.17;100718.38;5029430;28;20590;-72
2023/03/15 11:21:33;;;;;;;3.87;2.20;;;;;;;6.52;67.64;100717.19;5025545;28;20275;-73
2023/03/15 11:24:02;;;;;;;2.97;2.30;;;;;;;6.83;68.15;100717.41;5027746;28;20201;-73
2023/03/15 11:26:33;;;;;;;3.40;2.20;;;;;;;7.19;65.38;100716.78;5025845;28;20229;-73
2023/03/15 11:29:06;;;;;;;2.40;2.20;;;;;;;7.41;64.74;100724.53;5028793;28;20207;-72
2023/03/15 11:31:34;;;;;;;2.50;2.30;;;;;;;7.36;64.75;100731.41;5024429;28;20250;-72
2023/03/15 11:34:10;;;;;;;4.23;2.37;;;;;;;7.63;66.04;100727.84;5026165;28;20304;-72
2023/03/15 11:36:42;;;;;;;3.90;3.10;;;;;;;8.01;66.82;100729.00;5024768;28;20194;-73